AirNav   Duncan Aviation - Near you to keep you flying
 
 597 users online  

61WI Dinnerbell Airport
Eden, Wisconsin, USA

GOING TO EDEN?


FAA INFORMATION EFFECTIVE 26 JANUARY 2023

Location

FAA Identifier: 61WI
Lat/Long: 43-42-29.9730N 088-17-08.3620W
43-42.499550N 088-17.139367W
43.7083258,-88.2856561
(estimated)
Elevation: 1120 ft. / 341 m (estimated)
Variation: 01W (1985)
From city: 3 miles NE of EDEN, WI
Time zone: UTC -6 (UTC -5 during Daylight Saving Time)
Zip code: 53019

Airport Operations

Airport use: Private use. Permission required prior to landing
Activation date: 06/1980
Control tower: no
ARTCC: CHICAGO CENTER
FSS: GREEN BAY FLIGHT SERVICE STATION
Attendance: UNATNDD
Wind indicator: yes
Segmented circle: no

Airport Communications

WX ASOS at FLD (10 nm NW): 134.0 (920-922-4444)
WX AWOS-3 at ETB (18 nm S): 120.0 (262-334-6161)
WX ASOS at SBM (19 nm E): 118.425 (920-467-0744)

Nearby radio navigation aids

VOR radial/distance  VOR name  Freq  Var
BJBr339/(18.5)WEST BEND VOR109.8001W
OSHr143/20.6OSHKOSH VORTAC116.7502E
BAEr358/35.5BADGER VOR/DME116.4002E

 
NDB name  Hdg/Dist  Freq  Var  ID
ROCK RIVER032/37.437101WRYV .-. -.-- ...-

Airport Services

Runway Information

Runway N/S

Dimensions: 2000 x 50 ft. / 610 x 15 m
Surface: turf
RUNWAY N  RUNWAY S
Traffic pattern: leftleft

Airport Ownership and Management from official FAA records

Ownership: Privately-owned
Owner: ADAM GRAHL
N4599 PINE RD.
EDEN, WI 53019
Phone 920-948-7779
Manager: ADAM GRAHL
N4599 PINE RD
EDEN, WI 53019
Phone 920-948-7779

Airport Operational Statistics

Aircraft based on the field: 1
Multi engine airplanes: 1
    

Additional Remarks

FOR CD CTC CHICAGO ARTCC AT 630-906-8921.

Instrument Procedures

There are no published instrument procedures at 61WI.

Some nearby airports with instrument procedures:

KFLD - Fond Du Lac County Airport (10 nm NW)
8D1 - New Holstein Municipal Airport (16 nm NE)
KETB - West Bend Municipal Airport (18 nm S)
KSBM - Sheboygan County Memorial Airport (19 nm E)
KOSH - Wittman Regional Airport (20 nm NW)
 
Loc | Ops | Rwys | IFR | FBO | Links
Com | Nav | Svcs | Stats | Notes
Area around 61WI (Dinnerbell Airport)
 
Road maps at: MapQuest Bing Google
 
Aerial photo
No photo
 
Sectional chart

 
Airport distance calculator
Flying to Dinnerbell Airport? Find the distance to fly.

From to 61WI

Sunrise and sunset
Times for 27-Jan-2023
 Local
(UTC-6)
 Zulu
(UTC)
Morning civil twilight06:4512:45
Sunrise07:1613:16
Sunset16:5622:56
Evening civil twilight17:2723:27

Current date and time
Zulu (UTC)  27-Jan-2023 11:10:38
Local (UTC-6)  27-Jan-2023 05:10:38
 
METAR
KFLD 
9nm W 
271053Z AUTO 19014KT 10SM CLR M09/M13 A2975 RMK AO2 SLP087 T10941133
KETB 
19nm S 
271055Z AUTO 18005KT 10SM CLR M11/M13 A2980 RMK AO2
KOSH 
19nm NW 
271053Z AUTO 18016KT 10SM FEW120 M11/M14 A2972 RMK AO2 SLP086 T11061139
KSBM 
19nm E 
271053Z AUTO 18010KT 10SM CLR M10/M13 A2979 RMK AO2 SLP101 T11001128
TAF
KSBM 
19nm E 
271029Z 2710/2806 21013KT P6SM SCT015 FM271430 20017G30KT 2SM -SN BR OVC035 FM271800 23017G32KT P6SM VCSH OVC017 FM272300 27018G29KT P6SM BKN022
NOTAMs
Click for the latest NOTAMs
NOTAMs are issued by the DoD/FAA and will open in a separate window not controlled by AirNav.

 

 
 

Would you like to see your business listed on this page?

 If your business provides an interesting product or service to pilots, flight crews, aircraft, or users of the Dinnerbell Airport, you should consider listing it here.  To start the listing process, click on the button below
 
Add a business
 

Other Pages about Dinnerbell Airport

Update a link
 
Copyright © AirNav, LLC. All rights reserved. Privacy Policy  Contact